Time;durP1;ratioP1;P1;durP2;ratioP2;P2;SDS_P1;SDS_P2;PMS_P1;PMS_P2;Temp;Humidity;BMP_temperature;BMP_pressure;BME280_temperature;BME280_humidity;BME280_pressure;Samples;Min_cycle;Max_cycle;Signal;HPM_P1;HPM_P2
2022/11/27 00:03:14;;;;;;;23.37;21.10;;;6.20;99.90;;;;;;10254211;28;20196;-80
2022/11/27 00:08:17;;;;;;;21.80;19.60;;;6.20;99.90;;;;;;10259701;28;20220;-80
2022/11/27 00:13:19;;;;;;;21.00;18.70;;;6.20;99.90;;;;;;10275144;28;20220;-77
2022/11/27 00:18:21;;;;;;;21.17;18.83;;;6.20;99.90;;;;;;10255474;28;20264;-79
2022/11/27 00:23:25;;;;;;;21.37;19.20;;;6.20;99.90;;;;;;10256217;28;20209;-80
2022/11/27 00:28:28;;;;;;;21.03;19.13;;;6.10;99.90;;;;;;10255374;28;20226;-77
2022/11/27 00:33:30;;;;;;;19.83;17.70;;;6.00;99.90;;;;;;10263198;28;20208;-77
2022/11/27 00:38:35;;;;;;;19.43;17.50;;;5.90;99.90;;;;;;10252028;29;20224;-78
2022/11/27 00:43:38;;;;;;;21.37;19.17;;;5.80;99.90;;;;;;10291019;28;20204;-80
2022/11/27 00:48:41;;;;;;;19.17;17.07;;;5.80;99.90;;;;;;10276517;28;20322;-79
2022/11/27 00:53:47;;;;;;;20.73;17.90;;;5.80;99.90;;;;;;10266273;28;20197;-79
2022/11/27 00:58:53;;;;;;;17.43;15.73;;;5.70;99.90;;;;;;10249606;29;20226;-82
2022/11/27 01:03:56;;;;;;;17.57;15.90;;;5.70;99.90;;;;;;10255557;28;20292;-79
2022/11/27 01:09:00;;;;;;;23.00;20.27;;;5.60;99.90;;;;;;10317301;23;20251;-77
2022/11/27 01:14:05;;;;;;;17.33;15.63;;;5.60;99.90;;;;;;10315093;28;20200;-76
2022/11/27 01:19:07;;;;;;;16.23;14.30;;;5.60;99.90;;;;;;10315291;28;20239;-77
2022/11/27 01:24:13;;;;;;;16.80;15.10;;;5.60;99.90;;;;;;10301601;28;20274;-78
2022/11/27 01:29:15;;;;;;;17.43;15.73;;;5.50;99.90;;;;;;10321506;28;20226;-77
2022/11/27 01:34:18;;;;;;;19.27;17.27;;;5.40;99.90;;;;;;10317390;28;20192;-77
2022/11/27 01:39:22;;;;;;;18.17;16.23;;;5.40;99.90;;;;;;10321133;28;20216;-77
2022/11/27 01:44:58;;;;;;;17.53;15.73;;;5.40;99.90;;;;;;10305480;28;20200;-78
2022/11/27 01:50:14;;;;;;;21.63;16.20;;;5.50;99.90;;;;;;10159438;29;20345;-78
2022/11/27 01:55:24;;;;;;;14.70;13.30;;;5.50;99.90;;;;;;10283748;28;20286;-77
2022/11/27 02:00:27;;;;;;;15.97;14.50;;;5.50;99.90;;;;;;10326340;28;20598;-78
2022/11/27 02:05:29;;;;;;;15.10;13.60;;;5.50;99.90;;;;;;10293710;28;20200;-77
2022/11/27 02:10:42;;;;;;;15.30;13.80;;;5.50;99.90;;;;;;10304165;28;20674;-77
2022/11/27 02:15:50;;;;;;;14.50;13.10;;;5.40;99.90;;;;;;10328699;28;20572;-77
2022/11/27 02:21:04;;;;;;;14.83;13.43;;;5.40;99.90;;;;;;10305964;28;20219;-77
2022/11/27 02:26:24;;;;;;;16.37;14.80;;;5.40;99.90;;;;;;10297066;28;20211;-78
2022/11/27 02:31:38;;;;;;;15.60;14.20;;;5.30;99.90;;;;;;10331503;28;20214;-78
2022/11/27 02:36:47;;;;;;;14.07;12.67;;;5.30;99.90;;;;;;10299558;28;20259;-77
2022/11/27 02:41:54;;;;;;;13.60;12.40;;;5.30;99.90;;;;;;10303694;28;20212;-78
2022/11/27 02:46:58;;;;;;;13.00;11.77;;;5.20;99.90;;;;;;10309695;28;20227;-78
2022/11/27 02:52:03;;;;;;;13.10;12.00;;;5.20;99.90;;;;;;10319031;28;20219;-78
2022/11/27 02:57:07;;;;;;;14.40;12.97;;;5.10;99.90;;;;;;10299081;28;20219;-76
2022/11/27 03:02:17;;;;;;;14.03;12.73;;;5.10;99.90;;;;;;10333409;28;20724;-78
2022/11/27 03:07:25;;;;;;;13.07;11.93;;;5.00;99.90;;;;;;10296314;28;20223;-77
2022/11/27 03:12:27;;;;;;;14.53;12.83;;;4.90;99.90;;;;;;10297568;28;20811;-77
2022/11/27 03:17:42;;;;;;;15.00;13.57;;;4.90;99.90;;;;;;10329748;28;20310;-77
2022/11/27 03:22:44;;;;;;;16.27;13.00;;;4.90;99.90;;;;;;10292055;28;20301;-78
2022/11/27 03:27:50;;;;;;;14.67;13.33;;;5.00;99.90;;;;;;10329625;28;20302;-77
2022/11/27 03:32:53;;;;;;;13.43;12.20;;;4.90;99.90;;;;;;10294915;28;20196;-76
2022/11/27 03:37:56;;;;;;;12.83;11.63;;;4.90;99.90;;;;;;10314198;28;20691;-77
2022/11/27 03:43:04;;;;;;;14.47;13.10;;;4.80;99.90;;;;;;10306059;28;20207;-76
2022/11/27 03:48:21;;;;;;;14.50;13.07;;;4.80;99.90;;;;;;10313999;28;20215;-77
2022/11/27 03:53:31;;;;;;;14.67;13.27;;;4.80;99.90;;;;;;10306836;28;20207;-78
2022/11/27 03:58:37;;;;;;;16.07;12.77;;;4.80;99.90;;;;;;10313359;28;20221;-77
2022/11/27 04:03:40;;;;;;;13.60;12.30;;;4.70;99.90;;;;;;10292221;28;20283;-78
2022/11/27 04:08:43;;;;;;;15.57;14.17;;;4.70;99.90;;;;;;10328282;28;20219;-78
2022/11/27 04:13:45;;;;;;;15.50;14.03;;;4.70;99.90;;;;;;10331344;28;20286;-78
2022/11/27 04:18:48;;;;;;;14.30;12.90;;;4.80;99.90;;;;;;10310005;28;20298;-77
2022/11/27 04:23:50;;;;;;;14.33;12.93;;;4.80;99.90;;;;;;10331886;28;20710;-78
2022/11/27 04:28:52;;;;;;;13.63;12.23;;;4.80;99.90;;;;;;10325748;28;20214;-78
2022/11/27 04:33:56;;;;;;;15.77;14.37;;;4.80;99.90;;;;;;10293626;28;20196;-78
2022/11/27 04:38:58;;;;;;;13.33;11.93;;;4.80;99.90;;;;;;10330302;28;20212;-78
2022/11/27 04:44:00;;;;;;;21.33;17.97;;;4.80;99.90;;;;;;10336665;28;20559;-78
2022/11/27 04:49:03;;;;;;;17.40;15.60;;;4.80;99.90;;;;;;10313751;28;20723;-77
2022/11/27 04:54:05;;;;;;;26.10;17.10;;;4.80;99.90;;;;;;10334874;28;20202;-78
2022/11/27 04:59:07;;;;;;;13.67;11.83;;;4.80;99.90;;;;;;10298897;28;20246;-78
2022/11/27 05:04:11;;;;;;;13.83;12.43;;;4.80;99.90;;;;;;10333925;28;20199;-78
2022/11/27 05:09:13;;;;;;;13.37;12.10;;;4.80;99.90;;;;;;10301563;28;20220;-78
2022/11/27 05:14:16;;;;;;;10.67;9.67;;;4.80;99.90;;;;;;10314998;28;20195;-78
2022/11/27 05:19:21;;;;;;;11.57;10.50;;;4.80;99.90;;;;;;10300623;28;20211;-78
2022/11/27 05:24:25;;;;;;;12.57;11.10;;;4.80;99.90;;;;;;10331621;28;20225;-78
2022/11/27 05:29:28;;;;;;;13.97;10.97;;;4.80;99.90;;;;;;10294212;28;20698;-78
2022/11/27 05:34:31;;;;;;;12.23;11.13;;;4.80;99.90;;;;;;10330712;28;20209;-78
2022/11/27 05:39:33;;;;;;;10.97;9.47;;;4.80;99.90;;;;;;10309957;28;20230;-77
2022/11/27 05:44:35;;;;;;;11.43;10.23;;;4.80;99.90;;;;;;10316509;28;20227;-78
2022/11/27 05:49:38;;;;;;;13.63;12.23;;;4.70;99.90;;;;;;10299572;28;20751;-77
2022/11/27 05:54:40;;;;;;;12.43;11.13;;;4.70;99.90;;;;;;10309386;28;20319;-77
2022/11/27 05:59:42;;;;;;;12.47;11.10;;;4.70;99.90;;;;;;10309121;28;20215;-77
2022/11/27 06:04:46;;;;;;;10.60;9.70;;;4.80;99.90;;;;;;10313586;28;20246;-78
2022/11/27 06:09:48;;;;;;;11.33;10.30;;;4.70;99.90;;;;;;10303457;28;20338;-77
2022/11/27 06:14:50;;;;;;;10.60;9.50;;;4.70;99.90;;;;;;10318685;28;20226;-77
2022/11/27 06:19:53;;;;;;;10.20;9.20;;;4.60;99.90;;;;;;10318231;28;20211;-78
2022/11/27 06:24:55;;;;;;;9.43;8.73;;;4.50;99.90;;;;;;10333048;28;20199;-78
2022/11/27 06:29:57;;;;;;;10.37;9.37;;;4.50;99.90;;;;;;10305927;28;20219;-79
2022/11/27 06:35:01;;;;;;;10.40;9.53;;;4.50;99.90;;;;;;10318270;28;20219;-79
2022/11/27 06:40:03;;;;;;;8.93;8.13;;;4.60;99.90;;;;;;10308055;28;20239;-79
2022/11/27 06:45:07;;;;;;;8.77;7.97;;;4.60;99.90;;;;;;10302547;28;20275;-79
2022/11/27 06:50:10;;;;;;;11.17;8.83;;;4.60;99.90;;;;;;10304172;28;20225;-79
2022/11/27 06:55:12;;;;;;;14.40;12.03;;;4.60;99.90;;;;;;10298669;28;20204;-79
2022/11/27 07:00:15;;;;;;;11.43;10.33;;;4.50;99.90;;;;;;10285812;28;20218;-79
2022/11/27 07:05:18;;;;;;;15.50;12.23;;;4.60;99.90;;;;;;10327242;28;20295;-78
2022/11/27 07:10:21;;;;;;;9.57;8.67;;;4.60;99.90;;;;;;10377440;23;20270;-80
2022/11/27 07:15:23;;;;;;;17.43;15.63;;;4.70;99.90;;;;;;10335744;28;20306;-79
2022/11/27 07:20:26;;;;;;;21.00;18.40;;;4.70;99.90;;;;;;10351172;28;20293;-81
2022/11/27 07:25:28;;;;;;;15.00;13.60;;;4.80;99.90;;;;;;10371273;28;20190;-79
2022/11/27 07:30:30;;;;;;;11.20;10.10;;;4.80;99.90;;;;;;10338880;28;20205;-79
2022/11/27 07:35:33;;;;;;;10.57;9.60;;;4.80;99.90;;;;;;10370718;28;20182;-79
2022/11/27 07:40:37;;;;;;;16.47;14.77;;;4.80;99.90;;;;;;10352862;28;20256;-79
2022/11/27 07:45:39;;;;;;;14.17;12.77;;;4.90;99.90;;;;;;10335087;28;20291;-80
2022/11/27 07:50:43;;;;;;;16.73;15.13;;;5.00;99.90;;;;;;10336586;28;20218;-82
2022/11/27 07:55:45;;;;;;;16.40;14.97;;;5.10;99.90;;;;;;10370031;28;20205;-79
2022/11/27 08:00:47;;;;;;;13.57;12.33;;;5.20;99.90;;;;;;10336800;28;20297;-82
2022/11/27 08:05:50;;;;;;;12.23;11.00;;;5.30;99.90;;;;;;10336816;28;20277;-81
2022/11/27 08:10:52;;;;;;;99.43;60.37;;;5.40;99.90;;;;;;10352676;28;20592;-81
2022/11/27 08:15:59;;;;;;;24.90;20.50;;;5.40;99.90;;;;;;10335713;28;20197;-82
2022/11/27 08:21:02;;;;;;;15.97;13.77;;;5.40;99.90;;;;;;10331545;28;20217;-79
2022/11/27 08:26:08;;;;;;;14.37;12.60;;;5.40;99.90;;;;;;10362092;28;20198;-79
2022/11/27 08:31:13;;;;;;;13.30;12.20;;;5.50;99.90;;;;;;10346543;28;20289;-81
2022/11/27 08:36:16;;;;;;;12.47;11.30;;;5.50;99.90;;;;;;10349647;28;20195;-79
2022/11/27 08:41:19;;;;;;;13.00;11.80;;;5.50;99.90;;;;;;10335312;28;20219;-79
2022/11/27 08:46:21;;;;;;;12.50;11.43;;;5.60;99.90;;;;;;10353038;28;20549;-80
2022/11/27 08:51:24;;;;;;;14.40;13.00;;;5.60;99.90;;;;;;10356323;28;20596;-79
2022/11/27 08:56:26;;;;;;;16.23;14.50;;;5.80;99.90;;;;;;10374255;28;20289;-79
2022/11/27 09:01:31;;;;;;;15.60;14.10;;;5.90;99.90;;;;;;10336429;28;20221;-79
2022/11/27 09:06:35;;;;;;;13.77;12.37;;;6.00;99.90;;;;;;10353057;28;20194;-79
2022/11/27 09:11:41;;;;;;;14.73;13.53;;;6.30;99.90;;;;;;10355682;28;20233;-79
2022/11/27 09:16:43;;;;;;;16.13;13.80;;;6.50;99.90;;;;;;10378378;28;20210;-82
2022/11/27 09:21:49;;;;;;;14.90;13.53;;;6.80;99.90;;;;;;10329269;28;20233;-81
2022/11/27 09:26:51;;;;;;;15.77;14.37;;;7.00;99.90;;;;;;10347950;28;20230;-82
2022/11/27 09:31:53;;;;;;;13.77;12.57;;;7.10;99.90;;;;;;10353431;28;20754;-81
2022/11/27 09:36:56;;;;;;;14.53;13.20;;;7.30;99.90;;;;;;10382795;28;20225;-81
2022/11/27 09:42:01;;;;;;;16.57;14.97;;;7.40;99.90;;;;;;10357244;28;20695;-80
2022/11/27 09:47:10;;;;;;;14.30;13.00;;;7.50;99.90;;;;;;10342610;28;20226;-80
2022/11/27 09:52:20;;;;;;;13.10;12.10;;;7.60;99.90;;;;;;10338716;28;20225;-80
2022/11/27 09:57:28;;;;;;;14.07;12.87;;;7.60;99.90;;;;;;10341455;28;20718;-79
2022/11/27 10:02:35;;;;;;;14.27;12.97;;;7.60;99.90;;;;;;10354957;28;20669;-81
2022/11/27 10:08:01;;;;;;;14.10;12.70;;;7.60;99.90;;;;;;10359651;28;20227;-79
2022/11/27 10:13:14;;;;;;;14.07;12.90;;;7.60;99.90;;;;;;10340471;28;20230;-80
2022/11/27 10:18:25;;;;;;;14.20;13.00;;;7.60;99.90;;;;;;10356412;28;20255;-80
2022/11/27 10:23:40;;;;;;;14.83;13.53;;;7.70;99.90;;;;;;10357656;28;20204;-80
2022/11/27 10:28:51;;;;;;;15.33;14.07;;;7.70;99.90;;;;;;10377806;28;20222;-80
2022/11/27 10:33:56;;;;;;;14.87;13.57;;;7.60;99.90;;;;;;10347579;28;20230;-81
2022/11/27 10:39:01;;;;;;;15.90;14.53;;;7.60;99.90;;;;;;10354264;28;20229;-81
2022/11/27 10:44:20;;;;;;;15.80;14.53;;;7.50;99.90;;;;;;10343960;28;20207;-81
2022/11/27 10:49:22;;;;;;;18.83;17.13;;;7.40;99.90;;;;;;10364947;28;20226;-81
2022/11/27 10:54:31;;;;;;;15.73;14.40;;;7.40;99.90;;;;;;10377190;28;20198;-80
2022/11/27 10:59:39;;;;;;;17.80;16.30;;;7.30;99.90;;;;;;10359251;28;20567;-80
2022/11/27 11:04:41;;;;;;;16.07;14.53;;;7.40;99.90;;;;;;10376490;28;20203;-80
2022/11/27 11:09:47;;;;;;;12.87;11.70;;;7.40;99.90;;;;;;10339709;28;20223;-80
2022/11/27 11:14:53;;;;;;;14.97;13.67;;;7.40;99.90;;;;;;10372386;28;20206;-80
2022/11/27 11:19:55;;;;;;;15.50;13.90;;;7.40;99.90;;;;;;10347671;28;20617;-81
2022/11/27 11:24:58;;;;;;;15.33;14.03;;;7.50;99.90;;;;;;10372011;28;20205;-80
2022/11/27 11:30:02;;;;;;;13.73;12.43;;;7.50;99.90;;;;;;10371396;28;20276;-79
2022/11/27 11:35:08;;;;;;;13.37;12.07;;;7.60;99.90;;;;;;10371910;28;20191;-82
2022/11/27 11:40:23;;;;;;;13.60;12.33;;;7.60;99.90;;;;;;10347713;28;20302;-82
2022/11/27 11:45:28;;;;;;;13.80;12.50;;;7.70;99.90;;;;;;10364529;28;20261;-82
2022/11/27 11:50:36;;;;;;;13.23;11.93;;;7.70;99.90;;;;;;10345134;28;20250;-81
2022/11/27 11:55:48;;;;;;;13.03;11.90;;;7.70;99.90;;;;;;10379419;28;20327;-83
2022/11/27 12:01:00;;;;;;;12.37;11.30;;;7.70;99.90;;;;;;10363137;28;20229;-82
2022/11/27 12:06:31;;;;;;;8.93;8.03;;;7.80;99.90;;;;;;10348623;28;20767;-82
2022/11/27 12:11:44;;;;;;;9.50;8.60;;;7.80;99.90;;;;;;10327963;28;20254;-82
2022/11/27 12:17:04;;;;;;;9.57;8.77;;;7.90;99.90;;;;;;10349443;28;20199;-81
2022/11/27 12:22:19;;;;;;;6.93;6.30;;;8.00;99.90;;;;;;10329794;28;20195;-81
2022/11/27 12:27:29;;;;;;;9.03;5.40;;;8.10;99.90;;;;;;10329850;28;20225;-81
2022/11/27 12:33:04;;;;;;;5.53;4.97;;;8.20;99.90;;;;;;10327618;28;20210;-81
2022/11/27 12:38:19;;;;;;;5.40;5.00;;;8.20;99.90;;;;;;10324532;28;20218;-82
2022/11/27 12:43:27;;;;;;;6.30;5.70;;;8.20;99.90;;;;;;10352020;28;20218;-80
2022/11/27 12:48:34;;;;;;;7.80;7.20;;;8.30;99.90;;;;;;10344534;28;20223;-81
2022/11/27 12:53:40;;;;;;;11.20;10.07;;;8.30;99.90;;;;;;10355017;28;20222;-80
2022/11/27 12:58:47;;;;;;;6.73;6.07;;;8.30;99.90;;;;;;10333365;28;20215;-82
2022/11/27 13:04:03;;;;;;;5.57;5.10;;;8.30;99.90;;;;;;10356830;28;20587;-82
2022/11/27 13:09:37;;;;;;;5.80;5.20;;;8.40;99.90;;;;;;10407372;22;20236;-78
2022/11/27 13:14:48;;;;;;;6.30;5.87;;;8.40;99.90;;;;;;10412258;28;20669;-78
2022/11/27 13:19:51;;;;;;;6.17;5.57;;;8.30;99.90;;;;;;10423239;28;20221;-81
2022/11/27 13:24:54;;;;;;;6.40;5.50;;;8.30;99.90;;;;;;10399173;28;20734;-80
2022/11/27 13:30:10;;;;;;;7.50;6.73;;;8.40;99.90;;;;;;10417434;28;20226;-82
2022/11/27 13:35:21;;;;;;;7.73;6.73;;;8.40;99.90;;;;;;10373601;28;20585;-81
2022/11/27 13:40:29;;;;;;;7.47;6.77;;;8.40;99.90;;;;;;10391060;28;20222;-81
2022/11/27 13:45:36;;;;;;;6.63;5.93;;;8.50;99.90;;;;;;10420375;28;20268;-81
2022/11/27 13:50:43;;;;;;;7.53;6.63;;;8.50;99.90;;;;;;10424958;28;20221;-81
2022/11/27 13:55:55;;;;;;;7.83;7.07;;;8.60;99.90;;;;;;10427632;28;20209;-81
2022/11/27 14:00:59;;;;;;;9.80;7.37;;;8.70;99.90;;;;;;10421987;28;20213;-80
2022/11/27 14:06:01;;;;;;;8.03;7.40;;;8.80;99.90;;;;;;10420599;28;20198;-81
2022/11/27 14:11:07;;;;;;;12.40;8.10;;;8.90;99.90;;;;;;10406626;28;20693;-81
2022/11/27 14:16:29;;;;;;;8.50;7.80;;;8.90;99.90;;;;;;10402482;28;20206;-81
2022/11/27 14:21:44;;;;;;;7.40;6.20;;;9.00;99.90;;;;;;10409218;28;20218;-80
2022/11/27 14:26:46;;;;;;;6.90;6.30;;;9.00;99.90;;;;;;10401080;28;20189;-78
2022/11/27 14:31:58;;;;;;;5.93;5.40;;;9.00;99.90;;;;;;10416753;28;20226;-79
2022/11/27 14:37:01;;;;;;;6.93;6.17;;;9.10;99.90;;;;;;10414835;28;20300;-78
2022/11/27 14:42:04;;;;;;;6.53;5.97;;;9.10;99.90;;;;;;10414197;28;20705;-80
2022/11/27 14:47:08;;;;;;;6.93;6.03;;;9.10;99.90;;;;;;10413615;28;20197;-80
2022/11/27 14:52:16;;;;;;;7.10;6.50;;;9.10;99.90;;;;;;10415106;28;20213;-82
2022/11/27 14:57:23;;;;;;;8.87;8.07;;;9.10;99.90;;;;;;10404690;28;20674;-81
2022/11/27 15:02:27;;;;;;;9.50;8.50;;;9.10;99.90;;;;;;10410544;28;20193;-82
2022/11/27 15:07:31;;;;;;;10.20;7.50;;;9.10;99.90;;;;;;10398421;28;20260;-81
2022/11/27 15:12:37;;;;;;;12.13;10.10;;;9.10;99.90;;;;;;10406069;28;20276;-79
2022/11/27 15:17:44;;;;;;;9.83;8.93;;;9.10;99.90;;;;;;10407694;28;20292;-82
2022/11/27 15:22:50;;;;;;;9.57;8.53;;;9.00;99.90;;;;;;10408060;28;20232;-83
2022/11/27 15:27:52;;;;;;;8.90;8.00;;;9.00;99.90;;;;;;10392630;28;20232;-82
2022/11/27 15:32:55;;;;;;;7.77;7.00;;;9.00;99.90;;;;;;10375146;28;20241;-84
2022/11/27 15:38:03;;;;;;;9.20;8.30;;;8.90;99.90;;;;;;10392845;28;20210;-82
2022/11/27 15:43:11;;;;;;;9.27;8.40;;;8.90;99.90;;;;;;10429394;28;20199;-81
2022/11/27 15:48:17;;;;;;;9.07;8.27;;;8.80;99.90;;;;;;10392867;28;20665;-82
2022/11/27 15:53:19;;;;;;;8.57;7.77;;;8.80;99.90;;;;;;10408443;28;20645;-81
2022/11/27 15:58:21;;;;;;;8.93;8.10;;;8.80;99.90;;;;;;10396529;28;20214;-82
2022/11/27 16:03:25;;;;;;;7.80;7.20;;;8.80;99.90;;;;;;10420961;28;20353;-80
2022/11/27 16:08:27;;;;;;;7.97;7.27;;;8.70;99.90;;;;;;10391128;28;20253;-82
2022/11/27 16:13:29;;;;;;;7.90;7.33;;;8.70;99.90;;;;;;10405714;28;20312;-82
2022/11/27 16:18:34;;;;;;;8.73;7.93;;;8.70;99.90;;;;;;10366769;28;20309;-80
2022/11/27 16:23:37;;;;;;;10.03;7.90;;;8.70;99.90;;;;;;10362755;28;20205;-81
2022/11/27 16:28:39;;;;;;;7.67;7.13;;;8.70;99.90;;;;;;10387093;28;20222;-81
2022/11/27 16:33:42;;;;;;;7.83;7.03;;;8.60;99.90;;;;;;10393352;28;20599;-80
2022/11/27 16:38:45;;;;;;;14.77;13.27;;;8.60;99.90;;;;;;10400722;28;20306;-81
2022/11/27 16:43:49;;;;;;;12.80;10.60;;;8.60;99.90;;;;;;10413986;28;20229;-81
2022/11/27 16:48:55;;;;;;;11.40;10.20;;;8.60;99.90;;;;;;10395272;28;20232;-79
2022/11/27 16:53:59;;;;;;;9.30;8.40;;;8.60;99.90;;;;;;10401570;28;20285;-81
2022/11/27 16:59:01;;;;;;;8.70;8.10;;;8.60;99.90;;;;;;10401742;28;20230;-80
2022/11/27 17:04:07;;;;;;;9.60;8.70;;;8.50;99.90;;;;;;10408989;28;20300;-79
2022/11/27 17:09:09;;;;;;;10.00;9.20;;;8.60;99.90;;;;;;10386734;28;20775;-79
2022/11/27 17:14:11;;;;;;;11.83;10.73;;;8.60;99.90;;;;;;10407070;28;20254;-80
2022/11/27 17:19:16;;;;;;;9.50;8.60;;;8.60;99.90;;;;;;10384583;28;20210;-81
2022/11/27 17:24:20;;;;;;;9.30;8.50;;;8.60;99.90;;;;;;10410261;28;20204;-81
2022/11/27 17:29:22;;;;;;;14.97;13.57;;;8.60;99.90;;;;;;10395078;28;20230;-82
2022/11/27 17:34:26;;;;;;;9.93;9.03;;;8.60;99.90;;;;;;10376012;28;20283;-79
2022/11/27 17:39:28;;;;;;;9.23;8.50;;;8.50;99.90;;;;;;10419016;28;20229;-83
2022/11/27 17:44:30;;;;;;;9.20;8.30;;;8.60;99.90;;;;;;10413148;28;20247;-82
2022/11/27 17:49:33;;;;;;;13.27;12.07;;;8.50;99.90;;;;;;10411346;28;20842;-80
2022/11/27 17:54:35;;;;;;;11.67;10.67;;;8.50;99.90;;;;;;10405333;28;20221;-80
2022/11/27 17:59:40;;;;;;;9.47;8.67;;;8.50;99.90;;;;;;10385851;28;20229;-79
2022/11/27 18:04:44;;;;;;;12.93;11.83;;;8.50;99.90;;;;;;10415544;28;20297;-80
2022/11/27 18:09:47;;;;;;;11.40;10.40;;;8.60;99.90;;;;;;10403517;28;20617;-79
2022/11/27 18:14:50;;;;;;;9.90;8.97;;;8.50;99.90;;;;;;10378058;28;20226;-80
2022/11/27 18:19:55;;;;;;;9.07;8.37;;;8.50;99.90;;;;;;10385551;28;20313;-81
2022/11/27 18:24:58;;;;;;;9.53;8.70;;;8.50;99.90;;;;;;10421321;28;20699;-81
2022/11/27 18:30:00;;;;;;;8.90;8.17;;;8.50;99.90;;;;;;10406720;28;20284;-81
2022/11/27 18:35:04;;;;;;;10.00;9.10;;;8.50;99.90;;;;;;10406262;28;20221;-80
2022/11/27 18:40:08;;;;;;;8.10;7.50;;;8.50;99.90;;;;;;10435890;28;20241;-79
2022/11/27 18:45:10;;;;;;;8.40;7.60;;;8.50;99.90;;;;;;10421587;28;20217;-79
2022/11/27 18:50:14;;;;;;;7.70;7.10;;;8.50;99.90;;;;;;10398783;28;20214;-79
2022/11/27 18:55:17;;;;;;;7.80;7.10;;;8.50;99.90;;;;;;10403888;28;20225;-81
2022/11/27 19:00:20;;;;;;;8.80;8.10;;;8.50;99.90;;;;;;10385438;28;20217;-81
2022/11/27 19:05:23;;;;;;;10.00;8.90;;;8.40;99.90;;;;;;10398618;28;20198;-82
2022/11/27 19:10:25;;;;;;;8.60;7.80;;;8.50;99.90;;;;;;10391842;22;20242;-81
2022/11/27 19:15:27;;;;;;;12.63;11.37;;;8.40;99.90;;;;;;10320117;28;20255;-82
2022/11/27 19:20:31;;;;;;;9.43;8.53;;;8.40;99.90;;;;;;10302245;28;20668;-82
2022/11/27 19:25:37;;;;;;;8.10;7.40;;;8.40;99.90;;;;;;10300901;28;20667;-82
2022/11/27 19:30:41;;;;;;;8.23;7.53;;;8.30;99.90;;;;;;10303266;28;20653;-80
2022/11/27 19:35:45;;;;;;;9.73;9.00;;;8.40;99.90;;;;;;10288476;28;20212;-82
2022/11/27 19:40:47;;;;;;;10.10;9.10;;;8.40;99.90;;;;;;10272727;28;20232;-82
2022/11/27 19:45:50;;;;;;;9.90;9.10;;;8.40;99.90;;;;;;10267334;28;20566;-80
2022/11/27 19:50:54;;;;;;;11.23;10.23;;;8.40;99.90;;;;;;10269484;28;20684;-80
2022/11/27 19:55:56;;;;;;;11.70;10.60;;;8.50;99.90;;;;;;10277928;28;20208;-82
2022/11/27 20:01:05;;;;;;;16.17;14.57;;;8.50;99.90;;;;;;10293924;28;20301;-80
2022/11/27 20:06:11;;;;;;;10.80;9.80;;;8.40;99.90;;;;;;10286191;28;20212;-81
2022/11/27 20:11:16;;;;;;;21.80;17.10;;;8.40;99.90;;;;;;10270739;28;20231;-80
2022/11/27 20:16:20;;;;;;;11.90;10.70;;;8.30;99.90;;;;;;10267150;28;20739;-80
2022/11/27 20:21:26;;;;;;;12.57;11.37;;;8.30;99.90;;;;;;10267019;28;20243;-80
2022/11/27 20:26:30;;;;;;;11.80;10.60;;;8.30;99.90;;;;;;10254145;28;20206;-79
2022/11/27 20:31:36;;;;;;;11.87;10.67;;;8.30;99.90;;;;;;10280758;28;20234;-80
2022/11/27 20:36:40;;;;;;;14.07;12.73;;;8.30;99.90;;;;;;10269369;28;20588;-79
2022/11/27 20:41:45;;;;;;;15.80;14.30;;;8.30;99.90;;;;;;10296516;28;20672;-80
2022/11/27 20:46:47;;;;;;;13.20;12.00;;;8.20;99.90;;;;;;10274632;28;20212;-80
2022/11/27 20:51:50;;;;;;;13.40;12.20;;;8.20;99.90;;;;;;10283213;28;20226;-80
2022/11/27 20:56:57;;;;;;;11.83;10.83;;;8.30;99.90;;;;;;10271797;28;20211;-80
2022/11/27 21:02:00;;;;;;;11.50;10.60;;;8.30;99.90;;;;;;10294992;28;20287;-79
2022/11/27 21:07:04;;;;;;;12.77;11.60;;;8.30;99.90;;;;;;10271247;28;20204;-80
2022/11/27 21:12:06;;;;;;;11.53;10.60;;;8.30;99.90;;;;;;10278428;28;20223;-79
2022/11/27 21:17:09;;;;;;;13.00;11.87;;;8.20;99.90;;;;;;10254643;28;20242;-80
2022/11/27 21:22:15;;;;;;;13.33;11.97;;;8.30;99.90;;;;;;10301669;28;20192;-80
2022/11/27 21:27:18;;;;;;;13.03;11.67;;;8.30;99.90;;;;;;10270979;28;20298;-80
2022/11/27 21:32:21;;;;;;;13.13;11.83;;;8.30;99.90;;;;;;10287244;28;20223;-80
2022/11/27 21:37:24;;;;;;;14.70;13.30;;;8.30;99.90;;;;;;10268827;28;20882;-80
2022/11/27 21:42:31;;;;;;;13.60;12.30;;;8.30;99.90;;;;;;10284817;28;20712;-78
2022/11/27 21:47:35;;;;;;;13.30;12.07;;;8.30;99.90;;;;;;10280079;28;20224;-80
2022/11/27 21:52:38;;;;;;;13.90;12.53;;;8.30;99.90;;;;;;10281334;28;20239;-79
2022/11/27 21:57:41;;;;;;;12.20;11.00;;;8.30;99.90;;;;;;10289459;28;20215;-80
2022/11/27 22:02:43;;;;;;;12.33;11.23;;;8.30;99.90;;;;;;10302747;28;20211;-79
2022/11/27 22:07:47;;;;;;;11.60;10.40;;;8.30;99.90;;;;;;10284505;28;20265;-80
2022/11/27 22:12:51;;;;;;;11.67;10.67;;;8.20;99.90;;;;;;10281052;28;20251;-81
2022/11/27 22:17:53;;;;;;;11.80;10.80;;;8.20;99.90;;;;;;10295205;28;20361;-81
2022/11/27 22:22:56;;;;;;;12.63;11.50;;;8.20;99.90;;;;;;10298288;28;20234;-82
2022/11/27 22:27:58;;;;;;;12.40;11.30;;;8.30;99.90;;;;;;10284857;28;20273;-80
2022/11/27 22:33:00;;;;;;;13.57;12.27;;;8.30;99.90;;;;;;10280872;28;20603;-80
2022/11/27 22:38:10;;;;;;;12.10;11.10;;;8.30;99.90;;;;;;10298873;28;20254;-80
2022/11/27 22:43:15;;;;;;;11.97;10.93;;;8.30;99.90;;;;;;10291654;28;20210;-82
2022/11/27 22:48:17;;;;;;;11.87;10.77;;;8.40;99.90;;;;;;10298173;28;20267;-82
2022/11/27 22:53:21;;;;;;;12.73;11.43;;;8.40;99.90;;;;;;10284695;28;20219;-82
2022/11/27 22:58:23;;;;;;;11.97;10.73;;;8.30;99.90;;;;;;10275281;28;20584;-80
2022/11/27 23:03:26;;;;;;;12.13;11.03;;;8.30;99.90;;;;;;10262917;28;20206;-80
2022/11/27 23:08:29;;;;;;;11.43;10.33;;;8.30;99.90;;;;;;10264771;28;20227;-81
2022/11/27 23:13:31;;;;;;;12.80;11.60;;;8.20;99.90;;;;;;10273852;28;20510;-81
2022/11/27 23:18:34;;;;;;;11.33;10.33;;;8.20;99.90;;;;;;10285274;28;20231;-81
2022/11/27 23:23:37;;;;;;;14.00;11.10;;;8.30;99.90;;;;;;10305183;28;20199;-80
2022/11/27 23:28:40;;;;;;;12.27;11.23;;;8.20;99.90;;;;;;10288679;28;20219;-80
2022/11/27 23:33:42;;;;;;;12.90;11.60;;;8.30;99.90;;;;;;10312020;28;20701;-80
2022/11/27 23:38:46;;;;;;;12.00;10.90;;;8.30;99.90;;;;;;10302629;28;20243;-81
2022/11/27 23:43:48;;;;;;;12.30;11.20;;;8.30;99.90;;;;;;10302840;28;20237;-81
2022/11/27 23:48:50;;;;;;;11.73;10.73;;;8.30;99.90;;;;;;10315346;28;20225;-80
2022/11/27 23:53:54;;;;;;;11.57;10.60;;;8.30;99.90;;;;;;10298891;28;20303;-80
2022/11/27 23:58:57;;;;;;;11.83;10.83;;;8.30;99.90;;;;;;10298019;28;20269;-79
